createdAt,value
2023-03-29T13:21:11.087Z,25.00
2023-03-29T13:22:11.120Z,25.00
2023-03-29T13:23:11.770Z,25.00
2023-03-29T13:24:11.018Z,25.00
2023-03-29T13:25:10.929Z,25.00
2023-03-29T13:26:10.846Z,0.00
2023-03-29T13:27:11.785Z,0.00
2023-03-29T13:28:10.695Z,0.00
2023-03-29T13:29:10.621Z,0.00
2023-03-29T13:30:10.558Z,0.00
2023-03-29T13:31:10.641Z,0.00
2023-03-29T13:32:10.389Z,0.00
2023-03-29T13:33:16.391Z,0.00
2023-03-29T13:34:12.837Z,0.00
2023-03-29T13:35:10.799Z,0.00
2023-03-29T13:36:10.091Z,0.00
2023-03-29T13:37:09.952Z,0.00
2023-03-29T13:38:09.849Z,0.00
2023-03-29T13:39:09.752Z,0.00
2023-03-29T13:40:09.650Z,0.00
2023-03-29T13:41:09.547Z,0.00
2023-03-29T13:42:09.455Z,0.00
2023-03-29T13:43:09.367Z,0.00
2023-03-29T13:44:09.320Z,0.00
2023-03-29T13:45:09.188Z,0.00
2023-03-29T13:46:09.196Z,0.00
2023-03-29T13:47:09.051Z,0.00
2023-03-29T13:48:08.996Z,0.00
2023-03-29T13:49:08.918Z,0.00
2023-03-29T13:50:08.873Z,0.00
2023-03-29T13:51:08.823Z,0.00
2023-03-29T13:52:08.753Z,0.00
2023-03-29T13:53:08.691Z,0.00
2023-03-29T13:54:08.656Z,0.00
2023-03-29T13:55:08.646Z,0.00
2023-03-29T13:56:08.580Z,0.00
2023-03-29T13:57:08.640Z,0.00
2023-03-29T13:58:09.240Z,0.00
2023-03-29T13:59:08.769Z,0.00
2023-03-29T14:00:08.496Z,0.00
2023-03-29T14:01:08.458Z,0.00
2023-03-29T14:02:08.451Z,0.00
2023-03-29T14:03:08.918Z,0.00
2023-03-29T14:04:08.415Z,0.00
2023-03-29T14:05:08.384Z,0.00
2023-03-29T14:06:08.392Z,0.00
2023-03-29T14:07:08.396Z,0.00
2023-03-29T14:08:08.439Z,0.00
2023-03-29T14:09:08.466Z,0.00
2023-03-29T14:10:08.525Z,0.00
2023-03-29T14:11:08.430Z,0.00
2023-03-29T14:12:08.446Z,0.00
2023-03-29T14:13:08.478Z,0.00
2023-03-29T14:14:08.499Z,0.00
2023-03-29T14:15:08.410Z,0.00
2023-03-29T14:16:08.450Z,0.00
2023-03-29T14:17:08.447Z,0.00
2023-03-29T14:18:08.903Z,0.00
2023-03-29T14:19:08.401Z,0.00
2023-03-29T14:20:08.410Z,0.00
2023-03-29T14:21:09.278Z,0.00
2023-03-29T14:22:08.687Z,0.00
2023-03-29T14:23:08.402Z,0.00
2023-03-29T14:24:08.379Z,0.00
2023-03-29T14:25:08.396Z,0.00
2023-03-29T14:26:08.400Z,0.00
2023-03-29T14:27:08.369Z,0.00
2023-03-29T14:28:08.335Z,0.00
2023-03-29T14:29:08.356Z,0.00
2023-03-29T14:30:08.327Z,0.00
2023-03-29T14:31:08.337Z,0.00
2023-03-29T14:32:08.291Z,0.00
2023-03-29T14:33:08.317Z,0.00
2023-03-29T14:34:08.313Z,0.00
2023-03-29T14:35:08.264Z,0.00
2023-03-29T14:36:08.459Z,0.00
2023-03-29T14:37:08.300Z,0.00
2023-03-29T14:38:08.216Z,0.00
2023-03-29T14:39:08.218Z,0.00
2023-03-29T14:40:08.116Z,0.00
2023-03-29T14:41:08.074Z,0.00
2023-03-29T14:42:08.084Z,0.00
2023-03-29T14:43:08.109Z,0.00
2023-03-29T14:44:08.074Z,0.00
2023-03-29T14:45:08.043Z,0.00
2023-03-29T14:46:08.060Z,0.00
2023-03-29T14:47:07.982Z,0.00
2023-03-29T14:48:08.038Z,0.00
2023-03-29T14:49:07.962Z,0.00
2023-03-29T14:50:07.963Z,0.00
2023-03-29T14:51:07.946Z,0.00
2023-03-29T14:52:07.936Z,0.00
2023-03-29T14:53:07.983Z,0.00
2023-03-29T14:54:07.899Z,0.00
2023-03-29T14:55:07.876Z,0.00
2023-03-29T14:56:07.893Z,0.00
2023-03-29T14:57:08.041Z,0.00
2023-03-29T14:58:09.506Z,0.00
2023-03-29T14:59:07.847Z,0.00
2023-03-29T15:00:07.770Z,0.00
2023-03-29T15:01:07.798Z,0.00
2023-03-29T15:02:07.751Z,0.00
2023-03-29T15:03:07.844Z,0.00
2023-03-29T15:04:07.575Z,0.00
2023-03-29T15:05:07.502Z,15.88
2023-03-29T15:06:07.460Z,30.07
2023-03-29T15:07:07.412Z,42.35
2023-03-29T15:08:07.366Z,47.61
2023-03-29T15:09:07.352Z,38.67
2023-03-29T15:10:07.273Z,46.36
2023-03-29T15:11:07.268Z,35.31
2023-03-29T15:12:07.168Z,23.88
2023-03-29T15:13:07.138Z,33.66
2023-03-29T15:14:07.081Z,72.77
2023-03-29T15:15:07.024Z,87.04
2023-03-29T15:16:08.344Z,112.29
2023-03-29T15:17:06.904Z,104.29
2023-03-29T15:18:06.936Z,111.22
2023-03-29T15:19:06.780Z,93.40
2023-03-29T15:20:06.703Z,14.78
2023-03-29T15:21:06.668Z,0.00
2023-03-29T15:22:06.602Z,28.16
2023-03-29T15:23:06.584Z,30.89
2023-03-29T15:24:06.520Z,0.00
2023-03-29T15:25:06.473Z,10.42
2023-03-29T15:26:06.453Z,9.66
2023-03-29T15:27:06.408Z,12.19
2023-03-29T15:28:06.403Z,25.00
2023-03-29T15:29:06.286Z,41.27
2023-03-29T15:30:06.234Z,63.69
2023-03-29T15:31:08.229Z,31.35
2023-03-29T15:32:06.165Z,43.46
2023-03-29T15:33:06.208Z,25.00
2023-03-29T15:35:06.030Z,44.18
2023-03-29T15:36:06.384Z,35.88
2023-03-29T15:37:06.108Z,32.23
2023-03-29T15:38:06.020Z,49.67
2023-03-29T15:39:05.997Z,14.17
2023-03-29T15:40:05.971Z,44.27
2023-03-29T15:41:05.986Z,44.39
2023-03-29T15:42:05.937Z,29.23
2023-03-29T15:43:05.893Z,9.48
2023-03-29T15:44:06.849Z,15.20
2023-03-29T15:45:05.773Z,29.34
2023-03-29T15:46:05.942Z,35.65
2023-03-29T15:47:05.722Z,47.82
2023-03-29T15:48:05.759Z,35.94
2023-03-29T15:49:05.673Z,46.62
2023-03-29T15:50:05.579Z,104.89
2023-03-29T15:51:06.837Z,179.88
2023-03-29T15:52:05.515Z,292.84
2023-03-29T15:53:14.783Z,301.48
2023-03-29T15:54:06.478Z,302.10
2023-03-29T15:55:05.428Z,304.15
2023-03-29T15:56:05.535Z,302.25
2023-03-29T15:57:05.381Z,305.89
2023-03-29T15:58:05.364Z,311.55
2023-03-29T15:59:05.254Z,315.53
2023-03-29T16:00:05.201Z,325.57
2023-03-29T16:01:05.184Z,305.76
2023-03-29T16:02:05.187Z,276.49
2023-03-29T16:03:05.083Z,255.63
2023-03-29T16:04:05.100Z,247.56
2023-03-29T16:05:04.991Z,246.19
2023-03-29T16:06:05.287Z,243.73
2023-03-29T16:07:04.971Z,247.99
2023-03-29T16:08:04.931Z,242.24
2023-03-29T16:09:04.924Z,241.79
2023-03-29T16:10:04.949Z,243.16
2023-03-29T16:11:04.945Z,244.03
2023-03-29T16:12:04.972Z,250.16
2023-03-29T16:13:04.968Z,238.13
2023-03-29T16:14:05.051Z,241.73
2023-03-29T16:15:05.005Z,241.27
2023-03-29T16:16:05.223Z,242.63
2023-03-29T16:17:05.116Z,249.20
2023-03-29T16:18:05.055Z,244.88
2023-03-29T16:19:05.046Z,247.23
2023-03-29T16:20:05.090Z,248.69
2023-03-29T16:21:05.052Z,247.63
2023-03-29T16:22:05.137Z,245.72
2023-03-29T16:23:05.090Z,237.98
2023-03-29T16:24:05.090Z,233.32
2023-03-29T16:25:05.089Z,235.92
2023-03-29T16:26:05.449Z,234.09
2023-03-29T16:27:05.057Z,236.42
2023-03-29T16:28:05.061Z,243.67
2023-03-29T16:29:05.132Z,250.00
2023-03-29T16:30:05.084Z,250.00
2023-03-29T16:31:05.070Z,249.01
2023-03-29T16:32:06.887Z,248.46
2023-03-29T16:33:05.124Z,249.49
2023-03-29T16:34:05.076Z,242.73
2023-03-29T16:35:05.062Z,241.09
2023-03-29T16:36:05.288Z,239.50
2023-03-29T16:37:05.076Z,238.93
2023-03-29T16:38:05.104Z,238.67
2023-03-29T16:39:05.179Z,242.96
2023-03-29T16:40:05.288Z,248.05
2023-03-29T16:41:05.823Z,250.09
2023-03-29T16:42:05.217Z,248.65
2023-03-29T16:43:05.232Z,243.08
2023-03-29T16:44:05.246Z,235.79
2023-03-29T16:45:05.246Z,237.46
2023-03-29T16:46:05.462Z,231.88
2023-03-29T16:47:05.253Z,227.11
2023-03-29T16:48:05.314Z,228.05
2023-03-29T16:49:05.290Z,225.88
2023-03-29T16:50:05.366Z,216.04
2023-03-29T16:51:05.335Z,210.32
2023-03-29T16:52:05.390Z,209.19
2023-03-29T16:53:05.393Z,207.72
2023-03-29T16:54:06.103Z,206.43
2023-03-29T16:55:05.367Z,224.69
2023-03-29T16:56:05.645Z,247.22
2023-03-29T16:57:05.456Z,251.39
2023-03-29T16:58:05.511Z,247.26
2023-03-29T16:59:05.473Z,232.19
2023-03-29T17:00:05.494Z,218.60
2023-03-29T17:01:05.536Z,215.53
2023-03-29T17:02:05.555Z,214.65
2023-03-29T17:03:05.642Z,217.38
2023-03-29T17:04:05.624Z,215.58
2023-03-29T17:05:05.615Z,219.27
2023-03-29T17:06:05.838Z,212.50
2023-03-29T17:07:05.722Z,211.43
2023-03-29T17:08:05.731Z,203.53
2023-03-29T17:09:05.739Z,199.05
2023-03-29T17:10:05.755Z,188.47
2023-03-29T17:11:05.798Z,182.98
2023-03-29T17:12:05.804Z,184.02
2023-03-29T17:13:05.831Z,185.13
2023-03-29T17:14:05.838Z,192.24
2023-03-29T17:15:05.853Z,205.00
2023-03-29T17:16:06.263Z,221.92
2023-03-29T17:17:05.911Z,227.19
2023-03-29T17:18:05.986Z,212.86
2023-03-29T17:19:05.978Z,195.74
2023-03-29T17:20:05.963Z,195.76
2023-03-29T17:21:05.960Z,193.35
2023-03-29T17:22:05.964Z,196.53
2023-03-29T17:23:05.971Z,199.08
2023-03-29T17:24:05.977Z,202.25
2023-03-29T17:25:05.983Z,200.40
2023-03-29T17:26:05.999Z,194.37
2023-03-29T17:27:05.989Z,192.87
2023-03-29T17:28:05.991Z,190.00
2023-03-29T17:29:05.997Z,188.58
2023-03-29T17:30:05.983Z,186.47
2023-03-29T17:31:06.024Z,185.76
2023-03-29T17:32:05.989Z,181.87
2023-03-29T17:33:06.001Z,191.72
2023-03-29T17:34:05.964Z,198.85
2023-03-29T17:35:05.988Z,200.60
2023-03-29T17:36:06.454Z,199.24
2023-03-29T17:37:06.040Z,197.97
2023-03-29T17:38:06.119Z,192.76
2023-03-29T17:39:06.166Z,190.41
2023-03-29T17:40:06.197Z,186.51
2023-03-29T17:41:06.240Z,192.60
2023-03-29T17:42:06.322Z,196.88
2023-03-29T17:43:06.341Z,198.46
2023-03-29T17:44:06.400Z,198.52
2023-03-29T17:45:06.856Z,194.83
2023-03-29T17:46:06.528Z,194.43
2023-03-29T17:47:06.396Z,187.61
2023-03-29T17:48:06.718Z,184.27
2023-03-29T17:49:06.407Z,188.33
2023-03-29T17:50:06.385Z,191.40
2023-03-29T17:51:06.407Z,193.76
2023-03-29T17:52:06.408Z,195.78
2023-03-29T17:53:06.486Z,207.02
2023-03-29T17:54:06.411Z,210.14
2023-03-29T17:55:06.416Z,212.69
2023-03-29T17:56:06.424Z,225.57
2023-03-29T17:57:06.460Z,223.14
2023-03-29T17:58:06.412Z,227.20
2023-03-29T17:59:06.423Z,228.37
2023-03-29T18:00:06.490Z,225.67
2023-03-29T18:01:06.537Z,214.29
2023-03-29T18:02:06.678Z,197.20
2023-03-29T18:03:07.361Z,189.97
2023-03-29T18:04:06.679Z,195.09
2023-03-29T18:05:06.703Z,193.83
2023-03-29T18:06:06.906Z,198.10
2023-03-29T18:07:06.879Z,199.00
2023-03-29T18:08:06.947Z,204.26
2023-03-29T18:09:06.986Z,197.21
2023-03-29T18:10:07.052Z,188.21
2023-03-29T18:11:07.096Z,187.79
2023-03-29T18:12:07.133Z,189.61
2023-03-29T18:13:07.245Z,197.46
2023-03-29T18:14:07.214Z,196.81
2023-03-29T18:15:07.254Z,195.39
2023-03-29T18:16:07.630Z,198.17
2023-03-29T18:17:07.441Z,198.32
2023-03-29T18:18:07.493Z,206.56
2023-03-29T18:19:07.462Z,214.91
2023-03-29T18:20:07.548Z,211.79
2023-03-29T18:21:07.576Z,210.25
2023-03-29T18:22:07.584Z,210.26
2023-03-29T18:23:07.610Z,197.72
2023-03-29T18:24:07.622Z,201.57
2023-03-29T18:25:07.624Z,199.99
2023-03-29T18:26:07.678Z,195.89
2023-03-29T18:27:07.699Z,201.45
2023-03-29T18:28:07.780Z,199.38
2023-03-29T18:29:09.731Z,199.53
2023-03-29T18:30:07.723Z,201.42
2023-03-29T18:31:07.740Z,206.36
2023-03-29T18:32:07.844Z,204.94
2023-03-29T18:33:07.798Z,202.23
2023-03-29T18:34:07.812Z,204.26
2023-03-29T18:35:07.825Z,201.83
2023-03-29T18:36:10.878Z,201.55
2023-03-29T18:37:08.941Z,193.12
2023-03-29T18:38:07.926Z,182.06
2023-03-29T18:39:07.944Z,165.71
2023-03-29T18:40:08.063Z,168.03
2023-03-29T18:41:07.983Z,175.13
2023-03-29T18:42:08.759Z,185.25
2023-03-29T18:43:08.027Z,188.07
2023-03-29T18:44:08.096Z,189.82
2023-03-29T18:45:08.069Z,191.20
2023-03-29T18:46:08.235Z,202.02
2023-03-29T18:47:08.088Z,215.66
2023-03-29T18:48:08.233Z,226.36
2023-03-29T18:49:08.214Z,245.25
2023-03-29T18:50:08.308Z,249.99
2023-03-29T18:51:08.327Z,248.90
2023-03-29T18:52:08.372Z,239.63
2023-03-29T18:53:08.406Z,226.59
2023-03-29T18:54:08.481Z,224.26
2023-03-29T18:55:08.592Z,221.99
2023-03-29T18:56:08.633Z,222.37
2023-03-29T18:57:08.757Z,226.60
2023-03-29T18:58:08.774Z,229.36
2023-03-29T18:59:08.894Z,230.81
2023-03-29T19:00:08.933Z,228.51
2023-03-29T19:01:08.966Z,233.88
2023-03-29T19:02:09.005Z,240.49
2023-03-29T19:03:09.120Z,259.63
2023-03-29T19:04:09.075Z,247.84
2023-03-29T19:05:09.117Z,237.13
2023-03-29T19:06:09.119Z,236.71
2023-03-29T19:07:09.171Z,231.80
2023-03-29T19:08:09.248Z,228.91
2023-03-29T19:09:09.241Z,228.99
2023-03-29T19:10:09.242Z,225.54
2023-03-29T19:11:09.289Z,224.01
2023-03-29T19:12:09.274Z,223.67
2023-03-29T19:13:09.299Z,223.74
2023-03-29T19:14:09.428Z,206.17
2023-03-29T19:15:09.331Z,189.45
2023-03-29T19:16:09.589Z,186.72
2023-03-29T19:17:09.379Z,180.04
2023-03-29T19:18:09.422Z,183.09
2023-03-29T19:19:09.425Z,185.08
2023-03-29T19:20:09.421Z,185.79
2023-03-29T19:21:09.464Z,186.95
2023-03-29T19:22:09.518Z,190.66
2023-03-29T19:23:09.621Z,191.41
2023-03-29T19:24:09.708Z,193.57
2023-03-29T19:25:09.796Z,196.46
2023-03-29T19:26:09.867Z,199.73
2023-03-29T19:27:12.110Z,202.21
2023-03-29T19:28:09.936Z,206.21
2023-03-29T19:29:09.973Z,209.87
2023-03-29T19:30:10.018Z,211.14
2023-03-29T19:31:10.078Z,213.50
2023-03-29T19:32:10.048Z,211.15
2023-03-29T19:33:10.051Z,213.73
2023-03-29T19:34:10.056Z,217.78
2023-03-29T19:35:10.058Z,217.94
2023-03-29T19:36:10.150Z,217.45
2023-03-29T19:37:10.085Z,215.89
2023-03-29T19:38:10.108Z,209.71
2023-03-29T19:39:10.122Z,188.82
2023-03-29T19:40:10.129Z,179.90
2023-03-29T19:41:10.146Z,180.27
2023-03-29T19:42:10.123Z,183.70
2023-03-29T19:43:10.194Z,185.75
2023-03-29T19:44:10.158Z,187.92
2023-03-29T19:45:10.178Z,178.99
2023-03-29T19:46:10.344Z,175.80
2023-03-29T19:47:10.209Z,173.11
2023-03-29T19:49:10.242Z,187.42
2023-03-29T19:50:10.281Z,195.35
2023-03-29T19:51:10.250Z,200.40
2023-03-29T19:52:10.258Z,200.21
2023-03-29T19:53:10.324Z,197.64
2023-03-29T19:54:10.251Z,192.15
2023-03-29T19:55:10.259Z,183.23
2023-03-29T19:56:10.275Z,181.77
2023-03-29T19:57:10.441Z,180.62
2023-03-29T19:58:10.367Z,176.21
2023-03-29T19:59:10.438Z,168.33
2023-03-29T20:00:10.511Z,170.04
2023-03-29T20:01:10.583Z,166.12
2023-03-29T20:02:10.793Z,163.01
2023-03-29T20:03:10.803Z,166.80
2023-03-29T20:04:10.767Z,184.52
2023-03-29T20:05:10.809Z,178.26
2023-03-29T20:06:10.880Z,173.04
2023-03-29T20:07:10.889Z,185.83
2023-03-29T20:08:10.878Z,194.98
2023-03-29T20:09:10.882Z,195.11
2023-03-29T20:10:10.898Z,191.75
2023-03-29T20:11:10.930Z,192.80
2023-03-29T20:12:10.975Z,187.07
2023-03-29T20:13:10.979Z,180.16
2023-03-29T20:14:11.019Z,179.09
2023-03-29T20:15:11.064Z,181.17
2023-03-29T20:16:11.150Z,182.93
2023-03-29T20:17:11.176Z,178.31
2023-03-29T20:18:11.279Z,180.49
2023-03-29T20:19:11.277Z,182.02
2023-03-29T20:20:11.336Z,179.64
2023-03-29T20:21:11.409Z,173.28
2023-03-29T20:22:11.421Z,173.40
2023-03-29T20:23:11.440Z,174.46
2023-03-29T20:24:11.427Z,177.98
2023-03-29T20:25:11.443Z,182.71
2023-03-29T20:26:11.451Z,186.67
2023-03-29T20:27:11.445Z,188.05
2023-03-29T20:28:11.485Z,188.18
2023-03-29T20:29:11.475Z,188.60
2023-03-29T20:30:11.494Z,190.14
2023-03-29T20:31:11.530Z,193.95
2023-03-29T20:32:11.580Z,194.63
2023-03-29T20:33:11.539Z,190.35
2023-03-29T20:34:11.571Z,190.44
2023-03-29T20:35:11.634Z,198.39
2023-03-29T20:36:11.671Z,206.33
2023-03-29T20:37:11.690Z,211.72
2023-03-29T20:38:11.648Z,217.67
2023-03-29T20:39:11.658Z,209.13
2023-03-29T20:40:11.738Z,206.56
2023-03-29T20:41:11.774Z,206.78
2023-03-29T20:42:11.846Z,198.08
2023-03-29T20:43:11.917Z,191.08
2023-03-29T20:44:11.965Z,190.11
2023-03-29T20:45:11.952Z,190.29
2023-03-29T20:46:12.003Z,186.15
2023-03-29T20:47:11.981Z,176.05
2023-03-29T20:48:11.973Z,169.70
2023-03-29T20:49:11.994Z,161.50
2023-03-29T20:50:12.005Z,164.25
2023-03-29T20:51:12.003Z,167.41
2023-03-29T20:52:11.995Z,164.33
2023-03-29T20:53:12.010Z,164.43
2023-03-29T20:54:12.029Z,165.36
2023-03-29T20:55:12.043Z,165.53
2023-03-29T20:56:12.151Z,167.79
2023-03-29T20:57:12.079Z,173.85
2023-03-29T20:58:12.045Z,181.22
2023-03-29T20:59:12.043Z,191.12
2023-03-29T21:00:12.162Z,192.60
2023-03-29T21:01:12.101Z,190.77
2023-03-29T21:02:12.104Z,190.59
2023-03-29T21:03:12.219Z,187.58
2023-03-29T21:04:12.051Z,191.24
2023-03-29T21:05:12.051Z,191.07
2023-03-29T21:06:12.067Z,190.24
2023-03-29T21:07:12.061Z,188.31
2023-03-29T21:08:12.085Z,190.45
2023-03-29T21:09:12.060Z,188.84
2023-03-29T21:10:12.059Z,188.77
2023-03-29T21:11:12.085Z,189.58
2023-03-29T21:12:12.100Z,192.42
2023-03-29T21:13:12.143Z,193.80
2023-03-29T21:14:12.138Z,194.14
2023-03-29T21:15:12.170Z,195.08
2023-03-29T21:16:12.218Z,196.38
2023-03-29T21:17:12.305Z,198.08
2023-03-29T21:18:12.338Z,195.55
2023-03-29T21:19:12.383Z,194.59
2023-03-29T21:20:12.414Z,195.42
2023-03-29T21:21:12.501Z,202.89
2023-03-29T21:22:12.670Z,208.82
2023-03-29T21:23:12.599Z,210.46
2023-03-29T21:24:12.628Z,211.38
2023-03-29T21:25:12.695Z,210.34
2023-03-29T21:26:13.351Z,208.68
2023-03-29T21:27:12.797Z,207.68
2023-03-29T21:28:12.804Z,208.52
2023-03-29T21:29:12.820Z,208.98
2023-03-29T21:30:12.870Z,205.95
2023-03-29T21:31:12.930Z,205.01
2023-03-29T21:32:12.982Z,199.87
2023-03-29T21:33:12.998Z,200.48
2023-03-29T21:34:13.073Z,204.41
2023-03-29T21:35:13.092Z,208.67
2023-03-29T21:36:13.216Z,194.80
2023-03-29T21:37:15.169Z,187.14
2023-03-29T21:38:13.138Z,187.35
2023-03-29T21:39:13.145Z,187.59
2023-03-29T21:40:13.138Z,188.66
2023-03-29T21:41:13.129Z,190.79
2023-03-29T21:42:13.131Z,197.17
2023-03-29T21:43:13.131Z,200.55
2023-03-29T21:44:13.167Z,199.64
2023-03-29T21:45:13.133Z,200.65
2023-03-29T21:46:13.182Z,194.08
2023-03-29T21:47:13.148Z,189.67
2023-03-29T21:48:13.149Z,191.18
2023-03-29T21:49:13.140Z,179.63
2023-03-29T21:50:13.132Z,180.60
2023-03-29T21:51:13.127Z,181.11
2023-03-29T21:52:13.128Z,179.01
2023-03-29T21:53:13.117Z,178.19
2023-03-29T21:54:13.126Z,150.63
2023-03-29T21:55:13.125Z,143.35
2023-03-29T21:56:13.122Z,149.65
2023-03-29T21:57:13.184Z,152.34
2023-03-29T21:58:13.107Z,164.86
2023-03-29T21:59:13.189Z,152.18
2023-03-29T22:00:13.141Z,157.33
2023-03-29T22:01:13.197Z,158.72
2023-03-29T22:02:13.228Z,161.26
2023-03-29T22:03:13.223Z,159.04
2023-03-29T22:04:19.882Z,153.53
2023-03-29T22:05:14.232Z,153.54
2023-03-29T22:06:13.253Z,148.93
2023-03-29T22:07:13.256Z,146.59
2023-03-29T22:08:13.283Z,145.74
2023-03-29T22:09:13.260Z,165.01
2023-03-29T22:10:13.278Z,172.14
2023-03-29T22:11:13.249Z,175.87
2023-03-29T22:12:13.266Z,177.71
2023-03-29T22:13:13.263Z,174.49
2023-03-29T22:14:13.265Z,174.21
2023-03-29T22:15:13.327Z,181.96
2023-03-29T22:16:13.322Z,183.15
2023-03-29T22:17:13.309Z,183.07
2023-03-29T22:18:13.369Z,170.63
2023-03-29T22:19:13.307Z,174.08
2023-03-29T22:20:13.339Z,180.05
2023-03-29T22:21:13.374Z,185.15
2023-03-29T22:22:13.975Z,183.13
2023-03-29T22:23:13.440Z,180.37
2023-03-29T22:24:13.485Z,180.72
2023-03-29T22:25:13.557Z,175.75
2023-03-29T22:26:13.555Z,175.50
2023-03-29T22:27:13.626Z,173.65
2023-03-29T22:28:13.668Z,161.54
2023-03-29T22:29:13.728Z,155.21
2023-03-29T22:30:13.762Z,170.59
2023-03-29T22:31:13.825Z,162.29
2023-03-29T22:32:13.886Z,163.11
2023-03-29T22:33:13.873Z,151.62
2023-03-29T22:34:13.907Z,133.13
2023-03-29T22:35:13.979Z,144.21
2023-03-29T22:36:14.113Z,151.83
2023-03-29T22:37:14.081Z,159.13
2023-03-29T22:38:14.102Z,164.52
2023-03-29T22:39:14.141Z,171.84
2023-03-29T22:40:14.169Z,166.70
2023-03-29T22:41:14.176Z,164.70
2023-03-29T22:42:14.225Z,164.76
2023-03-29T22:43:14.385Z,164.89
2023-03-29T22:44:14.212Z,165.28
2023-03-29T22:45:14.188Z,165.08
2023-03-29T22:46:14.212Z,159.55
2023-03-29T22:47:14.132Z,167.37
2023-03-29T22:48:14.117Z,172.66
2023-03-29T22:49:14.112Z,176.97
2023-03-29T22:50:14.096Z,171.15
2023-03-29T22:51:14.106Z,180.43
2023-03-29T22:52:14.104Z,183.09
2023-03-29T22:53:14.091Z,173.58
2023-03-29T22:54:14.078Z,166.74
2023-03-29T22:55:14.124Z,165.27
2023-03-29T22:56:14.169Z,167.80
2023-03-29T22:57:14.237Z,169.49
2023-03-29T22:58:14.279Z,165.57
2023-03-29T22:59:14.341Z,170.64
2023-03-29T23:00:14.373Z,172.46
2023-03-29T23:01:14.427Z,173.52
2023-03-29T23:02:14.450Z,175.06
2023-03-29T23:03:14.501Z,172.74
2023-03-29T23:04:14.566Z,172.34
2023-03-29T23:05:14.523Z,172.45
2023-03-29T23:06:14.526Z,172.92
2023-03-29T23:07:14.532Z,173.46
2023-03-29T23:08:14.514Z,171.40
2023-03-29T23:09:16.398Z,166.43
2023-03-29T23:10:14.499Z,158.11
2023-03-29T23:11:14.494Z,144.33
2023-03-29T23:12:14.509Z,133.24
2023-03-29T23:13:14.507Z,123.36
2023-03-29T23:14:14.519Z,116.92
2023-03-29T23:15:14.514Z,116.68
2023-03-29T23:16:14.583Z,120.38
2023-03-29T23:17:14.512Z,117.31
2023-03-29T23:18:14.557Z,115.06
2023-03-29T23:19:14.605Z,110.37
2023-03-29T23:20:14.668Z,106.24
2023-03-29T23:21:14.800Z,107.39
2023-03-29T23:22:14.782Z,113.83
2023-03-29T23:23:14.832Z,114.04
2023-03-29T23:24:16.985Z,108.41
2023-03-29T23:25:14.889Z,115.95
2023-03-29T23:26:14.904Z,114.41
2023-03-29T23:27:14.907Z,112.99
2023-03-29T23:28:14.912Z,114.49
2023-03-29T23:29:14.957Z,116.85
2023-03-29T23:30:14.880Z,120.62
2023-03-29T23:31:14.917Z,118.75
2023-03-29T23:32:14.919Z,117.68
2023-03-29T23:33:14.888Z,120.22
2023-03-29T23:34:14.894Z,117.42
2023-03-29T23:35:14.892Z,112.51
2023-03-29T23:36:14.902Z,72.94
2023-03-29T23:37:14.938Z,44.72
2023-03-29T23:38:14.963Z,30.43
2023-03-29T23:39:14.957Z,34.25
2023-03-29T23:40:14.996Z,53.17
2023-03-29T23:41:14.973Z,77.58
2023-03-29T23:42:14.983Z,55.57
2023-03-29T23:43:15.004Z,54.88
2023-03-29T23:44:15.001Z,54.91
2023-03-29T23:45:15.009Z,62.84
2023-03-29T23:46:15.045Z,79.20
2023-03-29T23:47:15.042Z,93.05
2023-03-29T23:48:15.068Z,97.94
2023-03-29T23:49:15.051Z,101.15
2023-03-29T23:50:15.074Z,97.92
2023-03-29T23:51:15.081Z,94.30
2023-03-29T23:52:15.082Z,94.33
2023-03-29T23:53:15.081Z,94.44
2023-03-29T23:54:15.085Z,96.48
2023-03-29T23:55:15.102Z,98.77
2023-03-29T23:56:15.102Z,99.50
2023-03-29T23:57:15.158Z,44.89
2023-03-29T23:58:15.157Z,27.96
2023-03-29T23:59:15.165Z,27.57
